Welcome to La Porte Aviation Services!

An aviation adventure awaits

Current Weather Conditions

Available data for KPPO from the past 2 hours
LA PORTE, IN
Metar
KPPO 250655Z AUTO 19011G14KT 4SM RA OVC004 09/09 A2947 RMK AO2 T00940092

06:55 UTC

Wind: 190° 11kt

Visibility: 4 SM

Sky: OVC 400 ft

Temp: 9 deg C / 48.2 deg F

Dewpoint: 9 deg C / 48.2 deg F

Pressure: 29.47 inHg

Connect with us on Facebook!

Facebook By Weblizar Powered By Weblizar